createdAt,value
2016-12-30T00:00:49.057Z,-0.78
2016-12-30T00:01:54.284Z,-0.75
2016-12-30T00:02:59.489Z,-0.69
2016-12-30T00:04:04.711Z,-0.65
2016-12-30T00:05:09.881Z,-0.7
2016-12-30T00:06:16.045Z,-0.7
2016-12-30T00:07:20.286Z,-0.68
2016-12-30T00:08:25.498Z,-0.69
2016-12-30T00:09:30.777Z,-0.63
2016-12-30T00:10:35.926Z,-0.69
2016-12-30T00:11:41.202Z,-0.73
2016-12-30T00:12:47.070Z,-0.8
2016-12-30T00:13:50.403Z,-0.86
2016-12-30T00:14:55.590Z,-0.99
2016-12-30T00:15:59.843Z,-0.94
2016-12-30T00:17:05.172Z,-1.03
2016-12-30T00:18:09.416Z,-1.05
2016-12-30T00:19:12.652Z,-1.07
2016-12-30T00:20:17.840Z,-1.12
2016-12-30T00:21:21.139Z,-1.09
2016-12-30T00:22:27.313Z,-1.18
2016-12-30T00:23:33.475Z,-1.13
2016-12-30T00:24:39.645Z,-1.13
2016-12-30T00:25:45.815Z,-1.12
2016-12-30T00:26:51.046Z,-1.21
2016-12-30T00:27:57.240Z,-1.24
2016-12-30T00:29:03.497Z,-1.23
2016-12-30T00:30:07.729Z,-1.27
2016-12-30T00:31:13.914Z,-1.38
2016-12-30T00:32:19.108Z,-1.36
2016-12-30T00:33:23.315Z,-1.36
2016-12-30T00:34:28.509Z,-1.45
2016-12-30T00:35:34.750Z,-1.39
2016-12-30T00:36:40.187Z,-1.43
2016-12-30T00:37:45.392Z,-1.51
2016-12-30T00:38:48.621Z,-1.53
2016-12-30T00:39:51.884Z,-1.54
2016-12-30T00:40:55.119Z,-1.56
2016-12-30T00:42:00.319Z,-1.43
2016-12-30T00:43:03.602Z,-1.43
2016-12-30T00:44:09.770Z,-1.42
2016-12-30T00:45:14.961Z,-1.46
2016-12-30T00:46:21.151Z,-1.33
2016-12-30T00:47:26.317Z,-1.21
2016-12-30T00:48:31.506Z,-1.27
2016-12-30T00:49:36.771Z,-1.15
2016-12-30T00:50:43.012Z,-1.13
2016-12-30T00:51:49.178Z,-1.12
2016-12-30T00:52:55.343Z,-1.15
2016-12-30T00:54:00.540Z,-1.1
2016-12-30T00:55:06.704Z,-1.07
2016-12-30T00:56:12.874Z,-0.92
2016-12-30T00:57:19.119Z,-0.97
2016-12-30T00:58:24.268Z,-0.99
2016-12-30T00:59:29.469Z,-1.09
2016-12-30T01:00:35.366Z,-1.1
2016-12-30T01:01:40.662Z,-1.17
2016-12-30T01:02:46.862Z,-1.23
2016-12-30T01:03:52.055Z,-1.28
2016-12-30T01:04:58.232Z,-1.35
2016-12-30T01:06:04.401Z,-1.38
2016-12-30T01:07:09.633Z,-1.48
2016-12-30T01:08:13.865Z,-1.6
2016-12-30T01:09:20.029Z,-1.56
2016-12-30T01:10:25.222Z,-1.54
2016-12-30T01:11:31.443Z,-1.74
2016-12-30T01:12:36.609Z,-1.72
2016-12-30T01:13:41.801Z,-1.72
2016-12-30T01:14:46.024Z,-1.75
2016-12-30T01:15:51.192Z,-1.82
2016-12-30T01:16:56.473Z,-1.84
2016-12-30T01:18:01.656Z,-1.92
2016-12-30T01:19:07.818Z,-1.88
2016-12-30T01:20:13.010Z,-1.9
2016-12-30T01:21:17.240Z,-1.92
2016-12-30T01:22:22.536Z,-1.88
2016-12-30T01:23:28.311Z,-1.87
2016-12-30T01:24:32.543Z,-2
2016-12-30T01:25:38.756Z,-2.03
2016-12-30T01:26:44.696Z,-2
2016-12-30T01:27:49.864Z,-1.99
2016-12-30T01:28:56.027Z,-2.14
2016-12-30T01:30:02.206Z,-2.02
2016-12-30T01:31:07.408Z,-2.05
2016-12-30T01:32:13.574Z,-2.08
2016-12-30T01:33:18.773Z,-2.1
2016-12-30T01:34:23.964Z,-2.05
2016-12-30T01:35:29.182Z,-2.02
2016-12-30T01:36:35.344Z,-1.93
2016-12-30T01:37:41.607Z,-2.02
2016-12-30T01:38:45.836Z,-1.88
2016-12-30T01:39:52.092Z,-1.84
2016-12-30T01:40:57.276Z,-1.8
2016-12-30T01:42:02.481Z,-1.77
2016-12-30T01:43:06.813Z,-1.82
2016-12-30T01:44:10.708Z,-1.78
2016-12-30T01:45:14.938Z,-1.78
2016-12-30T01:46:21.096Z,-1.88
2016-12-30T01:47:25.321Z,-1.8
2016-12-30T01:48:30.493Z,-1.82
2016-12-30T01:49:36.708Z,-1.9
2016-12-30T01:50:41.824Z,-1.82
2016-12-30T01:51:47.131Z,-1.92
2016-12-30T01:52:52.329Z,-1.87
2016-12-30T01:53:57.531Z,-1.92
2016-12-30T01:55:02.719Z,-1.98
2016-12-30T01:56:08.989Z,-1.88
2016-12-30T01:57:14.145Z,-1.87
2016-12-30T01:58:18.383Z,-1.74
2016-12-30T01:59:23.588Z,-1.82
2016-12-30T02:00:27.785Z,-1.81
2016-12-30T02:01:33.065Z,-1.8
2016-12-30T02:02:37.268Z,-1.72
2016-12-30T02:03:43.442Z,-1.7
2016-12-30T02:04:49.611Z,-1.64
2016-12-30T02:05:52.859Z,-1.59
2016-12-30T02:06:59.018Z,-1.53
2016-12-30T02:08:04.189Z,-1.46
2016-12-30T02:09:10.463Z,-1.49
2016-12-30T02:10:14.706Z,-1.31
2016-12-30T02:11:19.944Z,-1.31
2016-12-30T02:12:26.094Z,-1.24
2016-12-30T02:13:31.263Z,-1.15
2016-12-30T02:14:37.429Z,-1.24
2016-12-30T02:15:42.624Z,-1.18
2016-12-30T02:16:48.789Z,-1.18
2016-12-30T02:17:54.939Z,-1.31
2016-12-30T02:19:00.130Z,-1.25
2016-12-30T02:20:05.331Z,-1.33
2016-12-30T02:21:11.491Z,-1.24
2016-12-30T02:22:16.756Z,-1.35
2016-12-30T02:23:21.917Z,-1.2
2016-12-30T02:24:27.754Z,-1.27
2016-12-30T02:25:33.917Z,-1.38
2016-12-30T02:26:39.136Z,-1.36
2016-12-30T02:27:44.260Z,-1.36
2016-12-30T02:28:50.421Z,-1.39
2016-12-30T02:29:56.645Z,-1.45
2016-12-30T02:31:01.847Z,-1.43
2016-12-30T02:32:07.043Z,-1.43
2016-12-30T02:33:11.239Z,-1.42
2016-12-30T02:34:16.442Z,-1.31
2016-12-30T02:35:21.636Z,-1.45
2016-12-30T02:36:24.927Z,-1.3
2016-12-30T02:37:30.057Z,-1.35
2016-12-30T02:38:36.218Z,-1.39
2016-12-30T02:39:41.410Z,-1.39
2016-12-30T02:40:47.576Z,-1.42
2016-12-30T02:41:52.769Z,-1.3
2016-12-30T02:42:58.940Z,-1.35
2016-12-30T02:44:03.170Z,-1.46
2016-12-30T02:45:08.380Z,-1.42
2016-12-30T02:46:14.529Z,-1.38
2016-12-30T02:47:19.776Z,-1.42
2016-12-30T02:48:25.935Z,-1.31
2016-12-30T02:49:30.148Z,-1.31
2016-12-30T02:50:35.350Z,-1.51
2016-12-30T02:51:41.477Z,-1.41
2016-12-30T02:52:46.671Z,-1.41
2016-12-30T02:53:52.836Z,-1.35
2016-12-30T02:54:57.996Z,-1.33
2016-12-30T02:56:01.267Z,-1.24
2016-12-30T02:57:05.462Z,-1.38
2016-12-30T02:58:10.660Z,-1.48
2016-12-30T02:59:15.848Z,-1.46
2016-12-30T03:00:20.129Z,-1.36
2016-12-30T03:01:26.327Z,-1.48
2016-12-30T03:02:32.456Z,-1.43
2016-12-30T03:03:35.694Z,-1.48
2016-12-30T03:04:41.867Z,-1.49
2016-12-30T03:05:47.085Z,-1.46
2016-12-30T03:06:52.280Z,-1.63
2016-12-30T03:07:58.442Z,-1.56
2016-12-30T03:09:03.614Z,-1.53
2016-12-30T03:10:07.851Z,-1.48
2016-12-30T03:11:12.112Z,-1.56
2016-12-30T03:12:18.276Z,-1.53
2016-12-30T03:13:24.478Z,-1.56
2016-12-30T03:14:29.676Z,-1.63
2016-12-30T03:15:34.889Z,-1.59
2016-12-30T03:16:40.087Z,-1.51
2016-12-30T03:17:44.433Z,-1.42
2016-12-30T03:18:50.553Z,-1.46
2016-12-30T03:19:55.743Z,-1.41
2016-12-30T03:21:01.911Z,-1.46
2016-12-30T03:22:08.065Z,-1.48
2016-12-30T03:23:13.253Z,-1.45
2016-12-30T03:24:18.543Z,-1.56
2016-12-30T03:25:23.741Z,-1.53
2016-12-30T03:26:29.899Z,-1.63
2016-12-30T03:27:34.144Z,-1.66
2016-12-30T03:28:40.299Z,-1.66
2016-12-30T03:29:45.501Z,-1.74
2016-12-30T03:30:51.665Z,-1.78
2016-12-30T03:31:55.872Z,-1.7
2016-12-30T03:32:59.125Z,-1.77
2016-12-30T03:34:02.391Z,-1.75
2016-12-30T03:35:08.598Z,-1.82
2016-12-30T03:36:13.793Z,-1.85
2016-12-30T03:37:19.957Z,-1.85
2016-12-30T03:38:25.178Z,-1.9
2016-12-30T03:39:31.338Z,-1.92
2016-12-30T03:40:36.539Z,-1.99
2016-12-30T03:41:40.740Z,-1.99
2016-12-30T03:42:46.901Z,-2.14
2016-12-30T03:43:52.097Z,-2.14
2016-12-30T03:44:55.688Z,-2.08
2016-12-30T03:46:00.874Z,-2.1
2016-12-30T03:47:06.061Z,-2.06
2016-12-30T03:48:11.271Z,-2.11
2016-12-30T03:49:17.438Z,-1.96
2016-12-30T03:50:23.588Z,-2.03
2016-12-30T03:51:28.785Z,-2.1
2016-12-30T03:52:33.979Z,-1.98
2016-12-30T03:53:38.798Z,-1.98
2016-12-30T03:54:43.097Z,-1.95
2016-12-30T03:55:49.254Z,-2.06
2016-12-30T03:56:54.451Z,-1.95
2016-12-30T03:57:59.695Z,-1.85
2016-12-30T03:59:03.959Z,-1.93
2016-12-30T04:00:09.154Z,-1.93
2016-12-30T04:01:15.304Z,-1.9
2016-12-30T04:02:19.535Z,-1.92
2016-12-30T04:03:25.699Z,-1.96
2016-12-30T04:04:31.860Z,-1.95
2016-12-30T04:05:36.088Z,-1.87
2016-12-30T04:06:42.250Z,-1.81
2016-12-30T04:07:46.446Z,-1.82
2016-12-30T04:08:52.606Z,-1.8
2016-12-30T04:09:57.811Z,-1.88
2016-12-30T04:11:03.974Z,-1.8
2016-12-30T04:12:08.196Z,-1.72
2016-12-30T04:13:14.354Z,-1.7
2016-12-30T04:14:18.577Z,-1.77
2016-12-30T04:15:22.863Z,-1.8
2016-12-30T04:16:29.027Z,-1.74
2016-12-30T04:17:34.232Z,-1.81
2016-12-30T04:18:38.453Z,-1.9
2016-12-30T04:19:44.686Z,-1.87
2016-12-30T04:20:50.814Z,-1.9
2016-12-30T04:21:56.966Z,-1.9
2016-12-30T04:23:01.163Z,-1.77
2016-12-30T04:24:05.361Z,-1.81
2016-12-30T04:25:10.624Z,-1.85
2016-12-30T04:26:15.791Z,-1.87
2016-12-30T04:27:21.946Z,-1.92
2016-12-30T04:28:28.105Z,-1.95
2016-12-30T04:29:33.302Z,-1.85
2016-12-30T04:30:37.531Z,-2.02
2016-12-30T04:31:43.690Z,-2.02
2016-12-30T04:32:49.864Z,-2.11
2016-12-30T04:33:56.029Z,-2.11
2016-12-30T04:35:02.189Z,-2.23
2016-12-30T04:36:07.387Z,-2.21
2016-12-30T04:37:11.586Z,-2.21
2016-12-30T04:38:17.747Z,-2.28
2016-12-30T04:39:21.005Z,-2.28
2016-12-30T04:40:27.164Z,-2.32
2016-12-30T04:41:32.360Z,-2.33
2016-12-30T04:42:37.592Z,-2.28
2016-12-30T04:43:40.904Z,-2.24
2016-12-30T04:44:45.083Z,-2.32
2016-12-30T04:45:49.320Z,-2.35
2016-12-30T04:46:55.532Z,-2.4
2016-12-30T04:48:00.695Z,-2.38
2016-12-30T04:49:06.847Z,-2.38
2016-12-30T04:50:09.864Z,-2.35
2016-12-30T04:51:14.166Z,-2.36
2016-12-30T04:52:20.335Z,-2.29
2016-12-30T04:53:25.527Z,-2.28
2016-12-30T04:54:29.757Z,-2.24
2016-12-30T04:55:35.924Z,-2.16
2016-12-30T04:56:41.157Z,-2.11
2016-12-30T04:57:47.314Z,-2.03
2016-12-30T04:58:51.551Z,-2.05
2016-12-30T04:59:56.752Z,-2.1
2016-12-30T05:01:00.992Z,-2.03
2016-12-30T05:02:04.320Z,-2.05
2016-12-30T05:03:08.674Z,-2.06
2016-12-30T05:04:13.199Z,-2.11
2016-12-30T05:05:18.391Z,-2.11
2016-12-30T05:06:23.575Z,-2.23
2016-12-30T05:07:27.778Z,-2.18
2016-12-30T05:08:32.978Z,-2.17
2016-12-30T05:09:37.196Z,-2.2
2016-12-30T05:10:43.405Z,-2.2
2016-12-30T05:11:48.569Z,-2.24
2016-12-30T05:12:54.728Z,-2.28
2016-12-30T05:14:00.889Z,-2.17
2016-12-30T05:15:07.050Z,-2.2
2016-12-30T05:16:13.211Z,-2.21
2016-12-30T05:17:18.399Z,-2.32
2016-12-30T05:18:24.570Z,-2.2
2016-12-30T05:19:29.757Z,-2.21
2016-12-30T05:20:35.918Z,-2.17
2016-12-30T05:21:41.106Z,-2.2
2016-12-30T05:22:46.319Z,-2.16
2016-12-30T05:23:52.519Z,-2.2
2016-12-30T05:24:57.723Z,-2.18
2016-12-30T05:26:03.954Z,-2.2
2016-12-30T05:27:08.182Z,-2.23
2016-12-30T05:28:14.370Z,-2.29
2016-12-30T05:29:19.565Z,-2.32
2016-12-30T05:30:24.774Z,-2.32
2016-12-30T05:31:30.933Z,-2.28
2016-12-30T05:32:37.090Z,-2.29
2016-12-30T05:33:42.278Z,-2.21
2016-12-30T05:34:46.507Z,-2.24
2016-12-30T05:35:51.728Z,-2.23
2016-12-30T05:36:55.890Z,-2.11
2016-12-30T05:38:02.064Z,-2.13
2016-12-30T05:39:08.356Z,-2.05
2016-12-30T05:40:13.516Z,-2.05
2016-12-30T05:41:18.740Z,-2.1
2016-12-30T05:42:23.894Z,-2.08
2016-12-30T05:43:28.085Z,-2.13
2016-12-30T05:44:34.251Z,-2.05
2016-12-30T05:45:40.409Z,-2.08
2016-12-30T05:46:45.610Z,-2.08
2016-12-30T05:47:49.830Z,-2.06
2016-12-30T05:48:55.029Z,-2.11
2016-12-30T05:50:00.219Z,-2.02
2016-12-30T05:51:05.409Z,-2.13
2016-12-30T05:52:11.566Z,-2.08
2016-12-30T05:53:16.848Z,-2.1
2016-12-30T05:54:23.043Z,-2.02
2016-12-30T05:55:29.225Z,-2.1
2016-12-30T05:56:33.436Z,-2.06
2016-12-30T05:57:38.632Z,-2.08
2016-12-30T05:58:42.834Z,-2.11
2016-12-30T05:59:48.080Z,-2.08
2016-12-30T06:00:53.251Z,-2
2016-12-30T06:01:57.478Z,-2.1
2016-12-30T06:03:02.641Z,-2.08
2016-12-30T06:04:07.803Z,-2.05
2016-12-30T06:05:12.001Z,-2.1
2016-12-30T06:06:17.204Z,-2.11
2016-12-30T06:07:21.488Z,-2.06
2016-12-30T06:09:31.885Z,-2.05
2016-12-30T06:10:38.275Z,-2.11
2016-12-30T06:11:43.470Z,-2
2016-12-30T06:12:49.668Z,-2.05
2016-12-30T06:13:54.820Z,-1.96
2016-12-30T06:14:59.051Z,-1.98
2016-12-30T06:16:05.229Z,-2.02
2016-12-30T06:17:08.471Z,-1.96
2016-12-30T06:18:14.634Z,-1.92
2016-12-30T06:19:19.829Z,-1.84
2016-12-30T06:20:25.030Z,-1.84
2016-12-30T06:21:31.280Z,-1.72
2016-12-30T06:22:37.550Z,-1.74
2016-12-30T06:23:41.775Z,-1.8
2016-12-30T06:24:46.973Z,-1.78
2016-12-30T06:25:51.313Z,-1.72
2016-12-30T06:26:54.570Z,-1.81
2016-12-30T06:27:59.770Z,-1.88
2016-12-30T06:29:04.960Z,-1.88
2016-12-30T06:30:10.151Z,-1.87
2016-12-30T06:31:16.364Z,-1.82
2016-12-30T06:32:21.506Z,-1.9
2016-12-30T06:33:27.669Z,-1.9
2016-12-30T06:34:31.908Z,-1.96
2016-12-30T06:35:37.137Z,-1.93
2016-12-30T06:36:39.489Z,-1.99
2016-12-30T06:37:43.646Z,-2.05
2016-12-30T06:38:47.876Z,-2.1
2016-12-30T06:39:52.064Z,-2.1
2016-12-30T06:40:58.263Z,-2.06
2016-12-30T06:42:02.493Z,-2.1
2016-12-30T06:43:07.685Z,-2.17
2016-12-30T06:44:13.858Z,-2.21
2016-12-30T06:45:19.036Z,-2.21
2016-12-30T06:46:25.202Z,-2.2
2016-12-30T06:47:29.429Z,-2.23
2016-12-30T06:48:33.719Z,-2.21
2016-12-30T06:49:38.911Z,-2.24
2016-12-30T06:50:45.066Z,-2.26
2016-12-30T06:51:50.239Z,-2.14
2016-12-30T06:52:56.460Z,-2.26
2016-12-30T06:54:01.641Z,-2.23
2016-12-30T06:55:07.840Z,-2.1
2016-12-30T06:56:14.010Z,-2.1
2016-12-30T06:57:17.606Z,-2.08
2016-12-30T06:58:23.770Z,-1.92
2016-12-30T06:59:28.959Z,-1.87
2016-12-30T07:00:33.193Z,-1.92
2016-12-30T07:01:38.381Z,-1.87
2016-12-30T07:02:43.581Z,-1.87
2016-12-30T07:03:49.785Z,-2.05
2016-12-30T07:04:55.947Z,-2.03
2016-12-30T07:06:01.144Z,-2.05
2016-12-30T07:07:07.312Z,-2.05
2016-12-30T07:08:13.477Z,-2.03
2016-12-30T07:09:19.635Z,-1.92
2016-12-30T07:10:24.848Z,-1.92
2016-12-30T07:11:30.002Z,-1.9
2016-12-30T07:12:35.248Z,-1.92
2016-12-30T07:13:40.443Z,-1.84
2016-12-30T07:14:44.726Z,-1.82
2016-12-30T07:15:50.878Z,-1.92
2016-12-30T07:16:56.081Z,-1.88
2016-12-30T07:18:01.270Z,-1.88
2016-12-30T07:19:07.433Z,-1.8
2016-12-30T07:20:13.593Z,-1.7
2016-12-30T07:21:18.823Z,-1.7
2016-12-30T07:22:24.044Z,-1.82
2016-12-30T07:23:28.275Z,-1.85
2016-12-30T07:24:33.461Z,-1.9
2016-12-30T07:25:37.682Z,-1.77
2016-12-30T07:26:42.872Z,-1.81
2016-12-30T07:27:49.043Z,-1.78
2016-12-30T07:28:53.321Z,-1.82
2016-12-30T07:29:58.532Z,-1.81
2016-12-30T07:31:04.698Z,-1.78
2016-12-30T07:32:10.869Z,-1.75
2016-12-30T07:33:16.061Z,-1.77
2016-12-30T07:34:22.233Z,-1.69
2016-12-30T07:35:27.435Z,-1.69
2016-12-30T07:37:38.794Z,-1.66
2016-12-30T07:38:43.986Z,-1.66
2016-12-30T07:39:50.145Z,-1.7
2016-12-30T07:40:54.387Z,-1.7
2016-12-30T07:41:58.554Z,-1.67
2016-12-30T07:43:03.743Z,-1.6
2016-12-30T07:44:08.912Z,-1.59
2016-12-30T07:45:15.077Z,-1.69
2016-12-30T07:46:21.238Z,-1.53
2016-12-30T07:47:27.512Z,-1.57
2016-12-30T07:48:32.846Z,-1.64
2016-12-30T07:49:38.724Z,-1.62
2016-12-30T07:50:43.920Z,-1.54
2016-12-30T07:51:48.176Z,-1.56
2016-12-30T07:52:53.340Z,-1.59
2016-12-30T07:53:57.571Z,-1.56
2016-12-30T07:55:03.725Z,-1.56
2016-12-30T07:56:07.961Z,-1.49
2016-12-30T07:57:14.120Z,-1.54
2016-12-30T07:58:19.310Z,-1.53
2016-12-30T07:59:24.576Z,-1.43
2016-12-30T08:00:29.772Z,-1.38
2016-12-30T08:01:34.966Z,-1.33
2016-12-30T08:02:41.126Z,-1.36
2016-12-30T08:03:46.296Z,-1.3
2016-12-30T08:04:51.215Z,-1.36
2016-12-30T08:05:57.361Z,-1.35
2016-12-30T08:07:02.558Z,-1.35
2016-12-30T08:08:08.721Z,-1.24
2016-12-30T08:09:14.881Z,-1.3
2016-12-30T08:10:20.083Z,-1.24
2016-12-30T08:11:25.277Z,-1.15
2016-12-30T08:12:29.531Z,-1.2
2016-12-30T08:13:35.699Z,-0.99
2016-12-30T08:14:40.959Z,-0.81
2016-12-30T08:15:46.145Z,-0.47
2016-12-30T08:16:52.303Z,-0.12
2016-12-30T08:17:54.567Z,0.18
2016-12-30T08:19:00.737Z,0.61
2016-12-30T08:20:06.933Z,0.88
2016-12-30T08:21:13.112Z,0.98
2016-12-30T08:22:17.350Z,1.24
2016-12-30T08:23:21.562Z,1.51
2016-12-30T08:24:27.724Z,1.61
2016-12-30T08:25:32.925Z,1.76
2016-12-30T08:26:38.092Z,1.93
2016-12-30T08:27:44.250Z,2.13
2016-12-30T08:28:49.479Z,2.41
2016-12-30T08:29:54.793Z,2.58
2016-12-30T08:30:58.962Z,2.81
2016-12-30T08:32:03.189Z,3.03
2016-12-30T08:33:07.422Z,3.4
2016-12-30T08:34:09.687Z,3.54
2016-12-30T08:35:15.850Z,4.03
2016-12-30T08:36:22.012Z,4.18
2016-12-30T08:37:27.210Z,4.33
2016-12-30T08:38:33.384Z,4.75
2016-12-30T08:39:39.553Z,5.02
2016-12-30T08:40:45.713Z,5.23
2016-12-30T08:41:49.926Z,5.5
2016-12-30T08:42:55.094Z,5.73
2016-12-30T08:44:00.377Z,5.96
2016-12-30T08:45:06.549Z,6.06
2016-12-30T08:46:10.744Z,6.19
2016-12-30T08:47:16.971Z,6.28
2016-12-30T08:48:22.141Z,6.46
2016-12-30T08:49:28.299Z,6.38
2016-12-30T08:50:33.499Z,6.62
2016-12-30T08:51:38.847Z,6.83
2016-12-30T08:52:45.009Z,6.91
2016-12-30T08:53:50.211Z,6.99
2016-12-30T08:54:55.371Z,7.24
2016-12-30T08:56:01.631Z,7.41
2016-12-30T08:57:07.802Z,7.53
2016-12-30T08:58:13.035Z,7.69
2016-12-30T08:59:17.206Z,7.69
2016-12-30T09:00:23.373Z,7.69
2016-12-30T09:01:28.574Z,7.85
2016-12-30T09:02:33.778Z,8.07
2016-12-30T09:03:39.944Z,8.15
2016-12-30T09:04:45.195Z,8.37
2016-12-30T09:05:51.369Z,8.58
2016-12-30T09:06:56.576Z,8.76
2016-12-30T09:08:01.885Z,8.83
2016-12-30T09:09:07.066Z,8.83
2016-12-30T09:10:13.435Z,8.83
2016-12-30T09:11:19.602Z,8.75
2016-12-30T09:12:25.782Z,8.72
2016-12-30T09:13:31.024Z,8.66
2016-12-30T09:14:36.224Z,8.81
2016-12-30T09:15:42.405Z,8.81
2016-12-30T09:16:46.706Z,8.84
2016-12-30T09:17:51.911Z,8.75
2016-12-30T09:18:56.147Z,8.79
2016-12-30T09:20:01.349Z,8.9
2016-12-30T09:21:07.627Z,8.99
2016-12-30T09:22:13.794Z,9.09
2016-12-30T09:23:17.068Z,9.2
2016-12-30T09:24:22.254Z,9.28
2016-12-30T09:25:26.498Z,9.35
2016-12-30T09:26:32.677Z,9.31
2016-12-30T09:27:37.845Z,9.53
2016-12-30T09:28:44.023Z,9.66
2016-12-30T09:29:49.227Z,9.66
2016-12-30T09:30:55.410Z,9.75
2016-12-30T09:32:01.588Z,9.88
2016-12-30T09:33:06.789Z,10
2016-12-30T09:34:10.042Z,10.04
2016-12-30T09:35:16.207Z,10.07
2016-12-30T09:36:21.414Z,10.25
2016-12-30T09:37:27.623Z,10.04
2016-12-30T09:38:31.834Z,9.99
2016-12-30T09:39:37.037Z,10.04
2016-12-30T09:40:43.220Z,9.91
2016-12-30T09:41:48.440Z,9.88
2016-12-30T09:42:52.650Z,9.86
2016-12-30T09:43:57.859Z,9.89
2016-12-30T09:45:04.040Z,9.96
2016-12-30T09:46:09.250Z,10
2016-12-30T09:47:14.450Z,9.91
2016-12-30T09:48:19.685Z,10.07
2016-12-30T09:49:25.874Z,10.04
2016-12-30T09:50:32.006Z,10.17
2016-12-30T09:51:38.207Z,10.33
2016-12-30T09:52:41.478Z,10.22
2016-12-30T09:53:44.706Z,10.37
2016-12-30T09:54:49.911Z,10.44
2016-12-30T09:55:53.192Z,10.52
2016-12-30T09:56:58.401Z,10.73
2016-12-30T09:58:04.624Z,10.94
2016-12-30T09:59:09.794Z,11.06
2016-12-30T10:00:14.037Z,11.19
2016-12-30T10:01:18.278Z,11.25
2016-12-30T10:02:24.458Z,11.25
2016-12-30T10:03:29.732Z,11.25
2016-12-30T10:04:33.949Z,11.43
2016-12-30T10:05:39.157Z,11.71
2016-12-30T10:06:45.346Z,12.01
2016-12-30T10:07:51.521Z,12.2
2016-12-30T10:08:57.693Z,12.27
2016-12-30T10:10:02.920Z,12.44
2016-12-30T10:11:08.127Z,12.42
2016-12-30T10:12:13.389Z,12.27
2016-12-30T10:13:19.510Z,12.05
2016-12-30T10:14:25.691Z,12.09
2016-12-30T10:15:31.873Z,12.2
2016-12-30T10:16:37.070Z,12.12
2016-12-30T10:17:42.333Z,12.38
2016-12-30T10:18:47.629Z,12.37
2016-12-30T10:19:53.083Z,12.39
2016-12-30T10:20:59.288Z,12.49
2016-12-30T10:22:05.423Z,12.48
2016-12-30T10:23:09.670Z,12.69
2016-12-30T10:24:13.879Z,12.7
2016-12-30T10:25:19.167Z,12.69
2016-12-30T10:26:23.404Z,12.69
2016-12-30T10:27:29.588Z,12.57
2016-12-30T10:28:34.795Z,12.66
2016-12-30T10:29:39.009Z,12.71
2016-12-30T10:30:45.199Z,12.59
2016-12-30T10:31:50.408Z,12.54
2016-12-30T10:32:53.626Z,12.69
2016-12-30T10:33:58.916Z,12.74
2016-12-30T10:35:04.077Z,12.79
2016-12-30T10:36:07.837Z,12.69
2016-12-30T10:37:12.064Z,12.74
2016-12-30T10:38:17.277Z,12.67
2016-12-30T10:39:22.498Z,12.71
2016-12-30T10:40:27.703Z,12.39
2016-12-30T10:41:33.873Z,12.16
2016-12-30T10:42:40.047Z,11.99
2016-12-30T10:43:45.315Z,11.9
2016-12-30T10:44:51.615Z,11.86
2016-12-30T10:45:56.858Z,11.7
2016-12-30T10:47:01.128Z,11.77
2016-12-30T10:48:07.301Z,11.62
2016-12-30T10:49:12.510Z,11.44
2016-12-30T10:50:15.834Z,11.36
2016-12-30T10:51:21.009Z,10.94
2016-12-30T10:52:26.215Z,10.73
2016-12-30T10:53:31.389Z,10.37
2016-12-30T10:54:36.564Z,9.64
2016-12-30T10:55:41.766Z,9.53
2016-12-30T10:56:47.939Z,9.28
2016-12-30T10:57:54.116Z,9.12
2016-12-30T10:59:00.291Z,8.87
2016-12-30T11:00:04.500Z,8.54
2016-12-30T11:01:10.666Z,8.39
2016-12-30T11:02:16.841Z,8.26
2016-12-30T11:03:21.080Z,8.1
2016-12-30T11:04:26.256Z,7.9
2016-12-30T11:05:32.428Z,7.67
2016-12-30T11:06:38.632Z,7.4
2016-12-30T11:07:43.829Z,7.19
2016-12-30T11:08:49.008Z,6.95
2016-12-30T11:09:54.202Z,6.72
2016-12-30T11:10:58.430Z,6.58
2016-12-30T11:12:03.634Z,6.41
2016-12-30T11:13:08.837Z,6.11
2016-12-30T11:14:15.007Z,6
2016-12-30T11:15:19.214Z,5.98
2016-12-30T11:16:23.442Z,5.83
2016-12-30T11:17:29.675Z,5.77
2016-12-30T11:18:34.888Z,5.68
2016-12-30T11:19:39.145Z,5.64
2016-12-30T11:20:45.281Z,5.57
2016-12-30T11:21:49.487Z,5.48
2016-12-30T11:22:55.650Z,5.5
2016-12-30T11:24:01.826Z,5.48
2016-12-30T11:25:06.999Z,5.45
2016-12-30T11:26:12.194Z,5.3
2016-12-30T11:27:18.336Z,5.31
2016-12-30T11:28:24.500Z,5.13
2016-12-30T11:29:29.699Z,5.16
2016-12-30T11:30:34.934Z,5.12
2016-12-30T11:31:41.072Z,5.1
2016-12-30T11:32:45.273Z,5.07
2016-12-30T11:33:50.471Z,5.09
2016-12-30T11:34:54.678Z,4.99
2016-12-30T11:35:58.921Z,4.94
2016-12-30T11:37:04.083Z,4.99
2016-12-30T11:38:10.241Z,4.94
2016-12-30T11:39:15.467Z,4.96
2016-12-30T11:40:20.770Z,4.89
2016-12-30T11:41:25.974Z,4.84
2016-12-30T11:42:31.179Z,4.86
2016-12-30T11:43:36.381Z,4.89
2016-12-30T11:44:41.578Z,4.84
2016-12-30T11:45:45.775Z,4.8
2016-12-30T11:46:50.995Z,4.76
2016-12-30T11:47:56.236Z,4.8
2016-12-30T11:49:02.402Z,4.72
2016-12-30T11:50:07.607Z,4.73
2016-12-30T11:51:11.856Z,4.77
2016-12-30T11:52:17.056Z,4.72
2016-12-30T11:53:23.229Z,4.7
2016-12-30T11:54:28.395Z,4.72
2016-12-30T11:55:33.638Z,4.77
2016-12-30T11:56:39.803Z,4.75
2016-12-30T11:57:45.983Z,4.64
2016-12-30T11:58:50.184Z,4.73
2016-12-30T11:59:54.414Z,4.76
2016-12-30T12:00:58.616Z,4.64
2016-12-30T12:02:03.818Z,4.79
2016-12-30T12:03:08.012Z,4.64
2016-12-30T12:04:13.217Z,4.58
2016-12-30T12:05:19.385Z,4.57
2016-12-30T12:06:25.561Z,4.55
2016-12-30T12:07:31.733Z,4.61
2016-12-30T12:08:38.007Z,4.5
2016-12-30T12:09:43.200Z,4.51
2016-12-30T12:10:48.386Z,4.51
2016-12-30T12:11:52.657Z,4.42
2016-12-30T12:12:56.828Z,4.44
2016-12-30T12:14:01.055Z,4.36
2016-12-30T12:15:05.324Z,4.36
2016-12-30T12:16:11.636Z,4.33
2016-12-30T12:17:17.285Z,4.34
2016-12-30T12:18:21.494Z,4.28
2016-12-30T12:19:27.679Z,4.34
2016-12-30T12:20:33.839Z,4.4
2016-12-30T12:21:38.040Z,4.33
2016-12-30T12:22:42.266Z,4.39
2016-12-30T12:23:46.502Z,4.39
2016-12-30T12:24:52.714Z,4.32
2016-12-30T12:25:57.874Z,4.32
2016-12-30T12:27:03.115Z,4.37
2016-12-30T12:28:08.461Z,4.28
2016-12-30T12:29:14.151Z,4.32
2016-12-30T12:30:18.412Z,4.34
2016-12-30T12:31:23.594Z,4.28
2016-12-30T12:32:28.802Z,4.28
2016-12-30T12:33:34.972Z,4.29
2016-12-30T12:34:41.155Z,4.33
2016-12-30T12:35:45.430Z,4.33
2016-12-30T12:37:56.787Z,4.34
2016-12-30T12:39:00.995Z,4.36
2016-12-30T12:40:06.198Z,4.43
2016-12-30T12:41:12.364Z,4.33
2016-12-30T12:42:17.585Z,4.34
2016-12-30T12:43:22.785Z,4.43
2016-12-30T12:44:27.984Z,4.28
2016-12-30T12:45:32.220Z,4.28
2016-12-30T12:46:38.384Z,4.43
2016-12-30T12:47:42.617Z,4.46
2016-12-30T12:48:47.824Z,4.36
2016-12-30T12:49:53.998Z,4.25
2016-12-30T12:51:00.198Z,4.29
2016-12-30T12:52:05.428Z,4.36
2016-12-30T12:53:10.723Z,4.42
2016-12-30T12:54:16.868Z,4.36
2016-12-30T12:55:22.068Z,4.42
2016-12-30T12:56:27.357Z,4.33
2016-12-30T12:57:32.506Z,4.4
2016-12-30T12:58:38.679Z,4.44
2016-12-30T12:59:43.889Z,4.42
2016-12-30T13:00:50.050Z,4.33
2016-12-30T13:01:55.221Z,4.29
2016-12-30T13:03:00.466Z,4.28
2016-12-30T13:04:06.635Z,4.34
2016-12-30T13:05:12.897Z,4.36
2016-12-30T13:06:18.158Z,4.32
2016-12-30T13:07:24.328Z,4.34
2016-12-30T13:08:30.492Z,4.4
2016-12-30T13:09:35.703Z,4.34
2016-12-30T13:10:38.941Z,4.39
2016-12-30T13:11:45.100Z,4.29
2016-12-30T13:12:50.297Z,4.32
2016-12-30T13:13:55.499Z,4.37
2016-12-30T13:14:59.729Z,4.37
2016-12-30T13:16:04.937Z,4.42
2016-12-30T13:18:15.329Z,4.44
2016-12-30T13:19:20.528Z,4.43
2016-12-30T13:20:26.700Z,4.43
2016-12-30T13:21:31.878Z,4.46
2016-12-30T13:22:38.108Z,4.42
2016-12-30T13:23:44.267Z,4.46
2016-12-30T13:24:48.471Z,4.44
2016-12-30T13:25:52.683Z,4.44
2016-12-30T13:26:58.890Z,4.42
2016-12-30T13:28:05.064Z,4.42
2016-12-30T13:29:09.275Z,4.46
2016-12-30T13:30:13.507Z,4.36
2016-12-30T13:31:17.743Z,4.44
2016-12-30T13:32:23.919Z,4.42
2016-12-30T13:33:29.114Z,4.33
2016-12-30T13:34:35.392Z,4.32
2016-12-30T13:35:40.584Z,4.42
2016-12-30T13:36:44.840Z,4.32
2016-12-30T13:37:51.015Z,4.32
2016-12-30T13:38:57.179Z,4.28
2016-12-30T13:40:02.410Z,4.28
2016-12-30T13:41:08.548Z,4.34
2016-12-30T13:42:11.816Z,4.26
2016-12-30T13:43:17.992Z,4.28
2016-12-30T13:44:24.157Z,4.32
2016-12-30T13:45:29.355Z,4.32
2016-12-30T13:46:35.514Z,4.29
2016-12-30T13:47:40.726Z,4.29
2016-12-30T13:48:43.961Z,4.32
2016-12-30T13:49:49.173Z,4.26
2016-12-30T13:50:54.352Z,4.29
2016-12-30T13:52:00.748Z,4.29
2016-12-30T13:53:04.948Z,4.33
2016-12-30T13:54:11.119Z,4.28
2016-12-30T13:55:17.352Z,4.33
2016-12-30T13:56:23.516Z,4.26
2016-12-30T13:57:28.711Z,4.24
2016-12-30T13:58:34.912Z,4.22
2016-12-30T13:59:40.108Z,4.19
2016-12-30T14:00:46.273Z,4.25
2016-12-30T14:01:51.443Z,4.24
2016-12-30T14:02:57.614Z,4.21
2016-12-30T14:04:00.835Z,4.25
2016-12-30T14:05:07.005Z,4.18
2016-12-30T14:06:12.281Z,4.18
2016-12-30T14:07:15.538Z,4.19
2016-12-30T14:08:20.850Z,4.19
2016-12-30T14:09:25.059Z,4.15
2016-12-30T14:10:31.239Z,4.12
2016-12-30T14:11:36.444Z,4.16
2016-12-30T14:12:40.815Z,4.14
2016-12-30T14:13:46.974Z,4.07
2016-12-30T14:14:52.143Z,4.12
2016-12-30T14:15:58.311Z,4.18
2016-12-30T14:17:03.509Z,4.12
2016-12-30T14:18:07.771Z,4.16